Time;durP1;ratioP1;P1;durP2;ratioP2;P2;SDS_P1;SDS_P2;PMS_P1;PMS_P2;Temp;Humidity;BMP_temperature;BMP_pressure;BME280_temperature;BME280_humidity;BME280_pressure;Samples;Min_cycle;Max_cycle;Signal;HPM_P1;HPM_P2
2024/04/16 00:00:58;;;;;;;;;;;18.40;70.80;;;;;;5390194;26;1987;-73
2024/04/16 00:03:23;;;;;;;;;;;18.40;70.80;;;;;;5398760;26;1533;-73
2024/04/16 00:05:48;;;;;;;;;;;18.40;70.80;;;;;;5394245;26;1879;-73
2024/04/16 00:08:14;;;;;;;;;;;18.40;70.80;;;;;;5393352;26;1781;-74
2024/04/16 00:10:40;;;;;;;;;;;18.40;70.80;;;;;;5394547;26;1466;-73
2024/04/16 00:13:05;;;;;;;;;;;18.40;70.80;;;;;;5393959;26;1793;-73
2024/04/16 00:15:31;;;;;;;;;;;18.40;70.80;;;;;;5395644;26;1416;-73
2024/04/16 00:17:56;;;;;;;;;;;18.40;70.80;;;;;;5393340;26;1801;-73
2024/04/16 00:20:22;;;;;;;;;;;18.40;70.80;;;;;;5407885;26;1748;-73
2024/04/16 00:22:47;;;;;;;;;;;18.40;70.80;;;;;;5393170;26;1853;-73
2024/04/16 00:25:13;;;;;;;;;;;18.40;71.10;;;;;;5398475;26;1660;-73
2024/04/16 00:27:38;;;;;;;;;;;18.40;70.80;;;;;;5390967;26;1450;-74
2024/04/16 00:30:04;;;;;;;;;;;18.40;70.80;;;;;;5400032;26;1961;-74
2024/04/16 00:32:29;;;;;;;;;;;18.40;70.80;;;;;;5394367;26;2049;-72
2024/04/16 00:34:55;;;;;;;;;;;18.40;70.80;;;;;;5394250;26;1729;-73
2024/04/16 00:37:20;;;;;;;;;;;18.40;70.80;;;;;;5396093;26;1994;-72
2024/04/16 00:39:46;;;;;;;;;;;18.40;70.80;;;;;;5391132;26;1500;-73
2024/04/16 00:42:12;;;;;;;;;;;18.40;70.80;;;;;;5396486;26;1865;-73
2024/04/16 00:44:37;;;;;;;;;;;18.40;70.80;;;;;;5397238;26;1408;-73
2024/04/16 00:47:03;;;;;;;;;;;18.40;70.80;;;;;;5401031;26;1899;-73
2024/04/16 00:49:28;;;;;;;;;;;18.40;70.80;;;;;;5395619;26;1839;-73
2024/04/16 00:51:54;;;;;;;;;;;18.40;70.80;;;;;;5377186;26;2020;-73
2024/04/16 00:54:20;;;;;;;;;;;18.40;70.80;;;;;;5394150;26;1866;-73
2024/04/16 00:56:45;;;;;;;;;;;18.40;70.80;;;;;;5397336;26;1921;-73
2024/04/16 00:59:10;;;;;;;;;;;18.40;70.80;;;;;;5404797;26;1912;-73
2024/04/16 01:01:36;;;;;;;;;;;18.40;70.80;;;;;;5367133;26;1833;-73
2024/04/16 01:04:02;;;;;;;;;;;18.40;70.80;;;;;;5393895;26;1863;-73
2024/04/16 01:06:27;;;;;;;;;;;18.40;70.80;;;;;;5393202;26;1849;-73
2024/04/16 01:08:52;;;;;;;;;;;18.40;70.90;;;;;;5396763;26;1398;-73
2024/04/16 01:11:25;;;;;;;;;;;18.40;70.80;;;;;;5394561;26;1745;-72
2024/04/16 01:13:50;;;;;;;;;;;18.40;70.80;;;;;;5391374;26;1751;-72
2024/04/16 01:16:16;;;;;;;;;;;18.40;70.80;;;;;;5367352;26;1473;-72
2024/04/16 01:18:41;;;;;;;;;;;18.40;70.80;;;;;;5392428;26;1833;-72
2024/04/16 01:21:07;;;;;;;;;;;18.40;70.80;;;;;;5392942;26;2050;-72
2024/04/16 01:23:32;;;;;;;;;;;18.40;70.80;;;;;;5389318;26;1526;-72
2024/04/16 01:25:58;;;;;;;;;;;18.40;70.90;;;;;;5378801;26;1566;-72
2024/04/16 01:28:23;;;;;;;;;;;18.40;70.80;;;;;;5402066;26;1443;-74
2024/04/16 01:30:49;;;;;;;;;;;18.40;70.90;;;;;;5391091;26;1600;-74
2024/04/16 01:33:14;;;;;;;;;;;18.40;70.80;;;;;;5400085;26;1136;-75
2024/04/16 01:35:40;;;;;;;;;;;18.40;70.80;;;;;;5401394;26;1129;-74
2024/04/16 01:38:05;;;;;;;;;;;18.40;70.80;;;;;;5396988;26;1315;-74
2024/04/16 01:40:31;;;;;;;;;;;18.40;70.80;;;;;;5392997;26;1825;-75
2024/04/16 01:42:56;;;;;;;;;;;18.40;70.80;;;;;;5400154;26;1620;-74
2024/04/16 01:45:22;;;;;;;;;;;18.40;70.80;;;;;;5372334;26;1711;-71
2024/04/16 01:47:47;;;;;;;;;;;18.40;70.80;;;;;;5399772;26;1783;-72
2024/04/16 01:50:13;;;;;;;;;;;18.40;70.80;;;;;;5397521;26;1778;-72
2024/04/16 01:52:38;;;;;;;;;;;18.40;70.90;;;;;;5395981;26;1512;-72
2024/04/16 01:55:04;;;;;;;;;;;18.40;70.80;;;;;;5394649;26;1450;-72
2024/04/16 01:57:29;;;;;;;;;;;18.40;70.80;;;;;;5398872;26;1888;-72
2024/04/16 01:59:55;;;;;;;;;;;18.40;70.80;;;;;;5398486;26;1798;-72
2024/04/16 02:02:20;;;;;;;;;;;18.40;70.80;;;;;;5394510;26;1915;-72
2024/04/16 02:04:46;;;;;;;;;;;18.40;70.90;;;;;;5397929;26;1901;-73
2024/04/16 02:07:11;;;;;;;;;;;18.40;70.80;;;;;;5395393;26;2106;-73
2024/04/16 02:09:36;;;;;;;;;;;18.40;70.80;;;;;;5399103;26;1887;-72
2024/04/16 02:12:02;;;;;;;;;;;18.40;70.90;;;;;;5393235;26;2092;-73
2024/04/16 02:14:28;;;;;;;;;;;18.40;70.80;;;;;;5397976;26;1017;-72
2024/04/16 02:16:53;;;;;;;;;;;18.40;70.80;;;;;;5396680;26;1781;-72
2024/04/16 02:19:18;;;;;;;;;;;18.40;70.90;;;;;;5395243;26;1878;-72
2024/04/16 02:21:44;;;;;;;;;;;18.40;71.60;;;;;;5394848;26;1827;-73
2024/04/16 02:24:09;;;;;;;;;;;18.40;70.80;;;;;;5399135;26;1781;-72
2024/04/16 02:26:35;;;;;;;;;;;18.40;70.90;;;;;;5399339;26;1885;-73
2024/04/16 02:29:00;;;;;;;;;;;18.40;70.90;;;;;;5400637;26;1863;-71
2024/04/16 02:31:27;;;;;;;;;;;18.40;70.90;;;;;;5394258;26;1794;-72
2024/04/16 02:33:52;;;;;;;;;;;18.40;70.90;;;;;;5404519;26;2094;-71
2024/04/16 02:36:18;;;;;;;;;;;18.40;70.90;;;;;;5392155;26;1879;-71
2024/04/16 02:38:43;;;;;;;;;;;18.40;70.90;;;;;;5398834;26;1864;-72
2024/04/16 02:41:09;;;;;;;;;;;18.40;70.90;;;;;;5388131;26;2173;-72
2024/04/16 02:43:34;;;;;;;;;;;18.40;70.90;;;;;;5389189;26;2111;-71
2024/04/16 02:46:00;;;;;;;;;;;18.40;70.90;;;;;;5399311;26;1950;-72
2024/04/16 02:48:25;;;;;;;;;;;18.40;70.80;;;;;;5393445;26;1751;-73
2024/04/16 02:50:51;;;;;;;;;;;18.40;70.90;;;;;;5397493;26;2005;-73
2024/04/16 02:53:17;;;;;;;;;;;18.40;70.90;;;;;;5389952;26;1750;-73
2024/04/16 02:55:42;;;;;;;;;;;18.40;70.90;;;;;;5406231;26;1760;-73
2024/04/16 02:58:08;;;;;;;;;;;18.40;70.80;;;;;;5392465;26;2039;-73
2024/04/16 03:00:36;;;;;;;;;;;18.40;70.90;;;;;;5390072;26;1832;-72
2024/04/16 03:03:02;;;;;;;;;;;18.40;70.90;;;;;;5397051;26;1796;-73
2024/04/16 03:05:27;;;;;;;;;;;18.40;70.90;;;;;;5398505;26;1773;-73
2024/04/16 03:07:53;;;;;;;;;;;18.40;70.80;;;;;;5396744;26;1432;-73
2024/04/16 03:10:18;;;;;;;;;;;18.40;70.80;;;;;;5395137;26;1832;-73
2024/04/16 03:12:44;;;;;;;;;;;18.40;70.90;;;;;;5398376;26;1808;-73
2024/04/16 03:15:09;;;;;;;;;;;18.30;70.80;;;;;;5390953;26;1478;-73
2024/04/16 03:17:35;;;;;;;;;;;18.40;70.90;;;;;;5369064;26;1999;-72
2024/04/16 03:20:01;;;;;;;;;;;18.40;70.90;;;;;;5398241;26;1759;-73
2024/04/16 03:22:26;;;;;;;;;;;18.40;70.90;;;;;;5394190;26;1809;-73
2024/04/16 03:24:52;;;;;;;;;;;18.40;70.90;;;;;;5392136;26;1609;-73
2024/04/16 03:27:17;;;;;;;;;;;18.40;70.90;;;;;;5394972;26;2053;-72
2024/04/16 03:29:43;;;;;;;;;;;18.40;70.90;;;;;;5391401;26;1597;-72
2024/04/16 03:32:08;;;;;;;;;;;18.40;70.90;;;;;;5397184;26;1762;-72
2024/04/16 03:34:34;;;;;;;;;;;18.40;70.90;;;;;;5395812;26;1303;-72
2024/04/16 03:37:00;;;;;;;;;;;18.40;70.90;;;;;;5400883;26;1629;-72
2024/04/16 03:39:26;;;;;;;;;;;18.40;70.90;;;;;;5396287;26;1920;-72
2024/04/16 03:41:51;;;;;;;;;;;18.40;70.90;;;;;;5390133;26;1880;-73
2024/04/16 03:44:17;;;;;;;;;;;18.40;70.90;;;;;;5396393;26;2013;-73
2024/04/16 03:46:42;;;;;;;;;;;18.40;70.90;;;;;;5407420;26;1524;-73
2024/04/16 03:49:08;;;;;;;;;;;18.40;70.90;;;;;;5391872;26;1861;-72
2024/04/16 03:51:33;;;;;;;;;;;18.40;70.90;;;;;;5397505;26;1964;-73
2024/04/16 03:53:59;;;;;;;;;;;18.40;70.90;;;;;;5394171;26;2494;-72
2024/04/16 03:56:24;;;;;;;;;;;18.40;70.90;;;;;;5397661;26;1631;-72
2024/04/16 03:59:04;;;;;;;;;;;18.40;70.90;;;;;;5393852;26;1450;-73
2024/04/16 04:01:30;;;;;;;;;;;18.40;70.90;;;;;;5398674;26;1874;-73
2024/04/16 04:03:56;;;;;;;;;;;18.40;70.90;;;;;;5392678;26;1594;-73
2024/04/16 04:06:22;;;;;;;;;;;18.40;70.90;;;;;;5395925;26;1045;-72
2024/04/16 04:08:47;;;;;;;;;;;18.40;70.90;;;;;;5390642;26;1534;-73
2024/04/16 04:11:12;;;;;;;;;;;18.40;70.80;;;;;;5397711;26;1505;-73
2024/04/16 04:13:38;;;;;;;;;;;18.40;70.80;;;;;;5387542;26;1638;-73
2024/04/16 04:16:03;;;;;;;;;;;18.40;70.80;;;;;;5391018;26;1701;-73
2024/04/16 04:18:29;;;;;;;;;;;18.40;70.80;;;;;;5391604;26;1993;-72
2024/04/16 04:20:54;;;;;;;;;;;18.40;70.70;;;;;;5392832;26;1847;-72
2024/04/16 04:23:20;;;;;;;;;;;18.50;70.70;;;;;;5396957;26;1660;-72
2024/04/16 04:25:45;;;;;;;;;;;18.50;70.60;;;;;;5396764;26;1788;-73
2024/04/16 04:28:11;;;;;;;;;;;18.50;70.50;;;;;;5393546;26;1553;-72
2024/04/16 04:30:36;;;;;;;;;;;18.50;70.40;;;;;;5391916;26;1655;-73
2024/04/16 04:33:02;;;;;;;;;;;18.50;70.30;;;;;;5396040;26;1782;-72
2024/04/16 04:35:27;;;;;;;;;;;18.50;70.20;;;;;;5391929;26;1974;-72
2024/04/16 04:37:53;;;;;;;;;;;18.60;70.10;;;;;;5400156;26;1928;-73
2024/04/16 04:40:18;;;;;;;;;;;18.60;70.00;;;;;;5369782;26;1801;-73
2024/04/16 04:42:44;;;;;;;;;;;18.60;70.30;;;;;;5394033;26;1845;-72
2024/04/16 04:45:09;;;;;;;;;;;18.60;69.80;;;;;;5404548;26;1946;-73
2024/04/16 04:47:35;;;;;;;;;;;18.70;69.80;;;;;;5391614;26;1889;-73
2024/04/16 04:50:00;;;;;;;;;;;18.60;69.70;;;;;;5391615;26;2014;-73
2024/04/16 04:52:26;;;;;;;;;;;18.70;69.70;;;;;;5398903;26;1813;-72
2024/04/16 04:54:51;;;;;;;;;;;18.70;69.60;;;;;;5371319;26;1796;-72
2024/04/16 04:57:17;;;;;;;;;;;18.70;69.60;;;;;;5396927;26;1774;-73
2024/04/16 04:59:42;;;;;;;;;;;18.70;69.50;;;;;;5399824;26;1821;-72
2024/04/16 05:02:09;;;;;;;;;;;18.70;69.40;;;;;;5395972;26;1865;-73
2024/04/16 05:04:35;;;;;;;;;;;18.80;69.50;;;;;;5393921;26;1758;-72
2024/04/16 05:07:00;;;;;;;;;;;18.80;69.40;;;;;;5394766;26;1873;-72
2024/04/16 05:09:26;;;;;;;;;;;18.80;69.40;;;;;;5406779;26;1509;-73
2024/04/16 05:11:51;;;;;;;;;;;18.80;69.30;;;;;;5389404;26;1582;-73
2024/04/16 05:14:19;;;;;;;;;;;18.80;69.30;;;;;;5389190;26;1787;-71
2024/04/16 05:16:45;;;;;;;;;;;18.80;69.20;;;;;;5394203;26;1832;-71
2024/04/16 05:19:10;;;;;;;;;;;18.80;69.20;;;;;;5364713;26;1999;-72
2024/04/16 05:21:35;;;;;;;;;;;18.80;69.10;;;;;;5385861;26;1899;-72
2024/04/16 05:24:02;;;;;;;;;;;18.80;69.10;;;;;;5396005;26;2009;-73
2024/04/16 05:26:27;;;;;;;;;;;18.80;69.10;;;;;;5389741;26;1968;-73
2024/04/16 05:28:53;;;;;;;;;;;18.80;69.00;;;;;;5395678;26;1609;-72
2024/04/16 05:31:19;;;;;;;;;;;18.80;69.00;;;;;;5391908;26;1466;-73
2024/04/16 05:33:45;;;;;;;;;;;18.80;69.00;;;;;;5403017;26;2479;-73
2024/04/16 05:36:10;;;;;;;;;;;18.80;68.90;;;;;;5398654;26;2538;-72
2024/04/16 05:38:36;;;;;;;;;;;18.90;69.00;;;;;;5392940;26;1796;-72
2024/04/16 05:41:02;;;;;;;;;;;18.90;68.90;;;;;;5386619;26;1863;-71
2024/04/16 05:43:27;;;;;;;;;;;18.90;68.90;;;;;;5396845;26;2064;-73
2024/04/16 05:45:53;;;;;;;;;;;18.90;68.90;;;;;;5390730;26;1953;-72
2024/04/16 05:48:18;;;;;;;;;;;18.90;68.90;;;;;;5391296;26;1920;-72
2024/04/16 05:50:44;;;;;;;;;;;18.90;68.90;;;;;;5393769;26;2000;-72
2024/04/16 05:53:09;;;;;;;;;;;18.90;68.90;;;;;;5397506;26;1934;-72
2024/04/16 05:55:35;;;;;;;;;;;18.90;68.90;;;;;;5395249;26;1569;-69
2024/04/16 05:58:00;;;;;;;;;;;18.90;68.90;;;;;;5393467;26;1560;-71
2024/04/16 06:00:25;;;;;;;;;;;18.90;68.90;;;;;;5389330;26;1478;-71
2024/04/16 06:02:51;;;;;;;;;;;18.90;68.90;;;;;;5387346;26;1829;-71
2024/04/16 06:05:16;;;;;;;;;;;18.90;68.90;;;;;;5391612;26;1667;-71
2024/04/16 06:07:42;;;;;;;;;;;18.90;68.90;;;;;;5398426;26;1756;-71
2024/04/16 06:10:07;;;;;;;;;;;18.90;69.00;;;;;;5393789;26;1805;-71
2024/04/16 06:12:33;;;;;;;;;;;18.90;69.00;;;;;;5404811;26;2032;-71
2024/04/16 06:14:59;;;;;;;;;;;18.80;68.90;;;;;;5394612;26;1475;-71
2024/04/16 06:17:24;;;;;;;;;;;18.90;69.00;;;;;;5391057;26;1984;-71
2024/04/16 06:19:50;;;;;;;;;;;18.80;68.90;;;;;;5397305;26;1910;-71
2024/04/16 06:22:15;;;;;;;;;;;18.90;69.00;;;;;;5403526;26;1826;-70
2024/04/16 06:24:41;;;;;;;;;;;18.80;69.00;;;;;;5393441;26;1903;-70
2024/04/16 06:27:06;;;;;;;;;;;18.80;69.00;;;;;;5393410;26;1842;-71
2024/04/16 06:29:32;;;;;;;;;;;18.80;69.00;;;;;;5396922;26;1669;-72
2024/04/16 06:31:57;;;;;;;;;;;18.80;69.00;;;;;;5395446;26;2014;-71
2024/04/16 06:34:23;;;;;;;;;;;18.80;69.00;;;;;;5391704;26;1808;-71
2024/04/16 06:36:48;;;;;;;;;;;18.80;69.00;;;;;;5398524;26;1567;-71
2024/04/16 06:39:14;;;;;;;;;;;18.80;69.00;;;;;;5398451;26;1795;-72
2024/04/16 06:41:39;;;;;;;;;;;18.80;69.00;;;;;;5395255;26;1864;-72
2024/04/16 06:44:05;;;;;;;;;;;18.80;69.00;;;;;;5400034;26;1996;-73
2024/04/16 06:46:30;;;;;;;;;;;18.80;69.00;;;;;;5394983;26;2006;-73
2024/04/16 06:48:56;;;;;;;;;;;18.80;69.00;;;;;;5401494;26;1944;-73
2024/04/16 06:51:21;;;;;;;;;;;18.80;69.00;;;;;;5367006;26;1892;-72
2024/04/16 06:53:47;;;;;;;;;;;18.80;69.00;;;;;;5395031;26;1864;-70
2024/04/16 06:56:12;;;;;;;;;;;18.80;69.10;;;;;;5407104;26;2206;-71
2024/04/16 06:58:37;;;;;;;;;;;18.80;69.10;;;;;;5393360;26;1744;-71
2024/04/16 07:01:03;;;;;;;;;;;18.80;69.10;;;;;;5393805;26;1893;-71
2024/04/16 07:03:29;;;;;;;;;;;18.80;69.10;;;;;;5392949;26;1791;-71
2024/04/16 07:05:54;;;;;;;;;;;18.80;69.10;;;;;;5389016;26;2091;-71
2024/04/16 07:08:19;;;;;;;;;;;18.80;69.10;;;;;;5395884;26;1852;-71
2024/04/16 07:10:45;;;;;;;;;;;18.80;69.10;;;;;;5394667;26;1633;-71
2024/04/16 07:13:11;;;;;;;;;;;18.80;69.10;;;;;;5391201;26;1890;-71
2024/04/16 07:15:37;;;;;;;;;;;18.80;69.10;;;;;;5392425;26;1390;-71
2024/04/16 07:18:02;;;;;;;;;;;18.80;69.10;;;;;;5392427;26;1637;-71
2024/04/16 07:20:28;;;;;;;;;;;18.80;69.10;;;;;;5391724;26;1730;-71
2024/04/16 07:22:53;;;;;;;;;;;18.80;69.10;;;;;;5391134;26;1856;-71
2024/04/16 07:25:19;;;;;;;;;;;18.80;69.10;;;;;;5395568;26;1855;-71
2024/04/16 07:27:44;;;;;;;;;;;18.80;69.10;;;;;;5389887;26;1439;-71
2024/04/16 07:30:10;;;;;;;;;;;18.80;69.10;;;;;;5393451;26;1773;-71
2024/04/16 07:32:35;;;;;;;;;;;18.80;69.10;;;;;;5400181;26;1782;-71
2024/04/16 07:35:01;;;;;;;;;;;18.80;69.10;;;;;;5392352;26;1785;-71
2024/04/16 07:37:26;;;;;;;;;;;18.80;69.10;;;;;;5396579;26;1652;-71
2024/04/16 07:39:52;;;;;;;;;;;18.80;69.10;;;;;;5391354;26;1864;-72
2024/04/16 07:42:17;;;;;;;;;;;18.80;69.10;;;;;;5396178;26;1825;-71
2024/04/16 07:44:43;;;;;;;;;;;18.80;69.10;;;;;;5393046;26;1757;-71
2024/04/16 07:47:08;;;;;;;;;;;18.80;69.90;;;;;;5397400;26;2061;-71
2024/04/16 07:49:34;;;;;;;;;;;18.80;69.20;;;;;;5388906;26;1850;-72
2024/04/16 07:52:00;;;;;;;;;;;18.80;69.20;;;;;;5396272;26;1568;-71
2024/04/16 07:54:25;;;;;;;;;;;18.80;69.20;;;;;;5400643;26;1878;-71
2024/04/16 07:56:51;;;;;;;;;;;18.80;69.20;;;;;;5395386;26;1920;-70
2024/04/16 07:59:16;;;;;;;;;;;18.80;69.20;;;;;;5398795;26;1913;-71
2024/04/16 08:01:42;;;;;;;;;;;18.80;69.20;;;;;;5391173;26;2010;-72
2024/04/16 08:04:07;;;;;;;;;;;18.80;69.20;;;;;;5399677;26;1880;-70
2024/04/16 08:06:33;;;;;;;;;;;18.80;69.30;;;;;;5390875;26;1854;-71
2024/04/16 08:08:58;;;;;;;;;;;18.80;69.30;;;;;;5400190;26;2546;-69
2024/04/16 08:11:24;;;;;;;;;;;18.80;69.30;;;;;;5389154;26;1395;-70
2024/04/16 08:13:50;;;;;;;;;;;18.80;69.30;;;;;;5388544;26;1487;-70
2024/04/16 08:16:16;;;;;;;;;;;18.80;69.40;;;;;;5390761;26;1900;-70
2024/04/16 08:18:41;;;;;;;;;;;18.80;69.30;;;;;;5398062;26;1826;-70
2024/04/16 08:21:07;;;;;;;;;;;18.80;69.40;;;;;;5365279;26;1865;-69
2024/04/16 08:23:32;;;;;;;;;;;18.80;69.40;;;;;;5391811;26;1751;-70
2024/04/16 08:26:04;;;;;;;;;;;18.80;69.40;;;;;;5393337;26;1865;-70
2024/04/16 08:28:31;;;;;;;;;;;18.80;69.40;;;;;;5395927;26;1932;-70
2024/04/16 08:31:05;;;;;;;;;;;18.80;69.40;;;;;;5389771;26;1897;-70
2024/04/16 08:33:31;;;;;;;;;;;18.80;69.40;;;;;;5392270;26;1775;-70
2024/04/16 08:35:56;;;;;;;;;;;18.80;69.30;;;;;;5399231;26;1824;-70
2024/04/16 08:38:22;;;;;;;;;;;18.80;69.40;;;;;;5393218;26;1781;-70
2024/04/16 08:40:48;;;;;;;;;;;18.80;69.40;;;;;;5398074;26;1837;-70
2024/04/16 08:43:13;;;;;;;;;;;18.80;69.40;;;;;;5401463;26;1846;-70
2024/04/16 08:45:42;;;;;;;;;;;18.80;69.30;;;;;;5395328;26;2063;-70
2024/04/16 08:48:07;;;;;;;;;;;18.80;69.30;;;;;;5400457;26;2006;-70
2024/04/16 08:50:33;;;;;;;;;;;18.80;69.30;;;;;;5392451;26;2492;-71
2024/04/16 08:52:58;;;;;;;;;;;18.80;69.20;;;;;;5392361;26;2811;-70
2024/04/16 08:55:25;;;;;;;;;;;18.80;69.20;;;;;;5391871;26;1784;-71
2024/04/16 08:57:51;;;;;;;;;;;18.80;69.20;;;;;;5391144;26;1940;-71
2024/04/16 09:00:17;;;;;;;;;;;18.80;69.20;;;;;;5396339;26;2156;-71
2024/04/16 09:02:43;;;;;;;;;;;18.80;69.20;;;;;;5394968;26;1867;-71
2024/04/16 09:05:09;;;;;;;;;;;18.80;69.20;;;;;;5394329;26;1729;-71
2024/04/16 09:07:34;;;;;;;;;;;18.80;69.20;;;;;;5390903;26;1377;-71
2024/04/16 09:10:00;;;;;;;;;;;18.80;69.20;;;;;;5396348;26;1443;-71
2024/04/16 09:12:25;;;;;;;;;;;18.80;69.20;;;;;;5396091;26;1360;-71
2024/04/16 09:14:51;;;;;;;;;;;18.80;69.20;;;;;;5400790;26;1853;-70
2024/04/16 09:17:17;;;;;;;;;;;18.80;69.20;;;;;;5396969;26;2177;-71
2024/04/16 09:19:42;;;;;;;;;;;18.80;69.20;;;;;;5392987;26;1472;-71
2024/04/16 09:22:08;;;;;;;;;;;18.80;69.20;;;;;;5389094;26;1826;-71
2024/04/16 09:24:33;;;;;;;;;;;18.80;69.20;;;;;;5389672;26;1363;-71
2024/04/16 09:26:59;;;;;;;;;;;18.80;69.20;;;;;;5398528;26;1358;-71
2024/04/16 09:29:25;;;;;;;;;;;18.80;69.20;;;;;;5368888;26;1336;-70
2024/04/16 09:32:00;;;;;;;;;;;18.80;69.20;;;;;;5394196;26;1677;-71
2024/04/16 09:34:25;;;;;;;;;;;18.80;69.20;;;;;;5396025;26;1781;-71
2024/04/16 09:36:51;;;;;;;;;;;18.80;69.30;;;;;;5388124;26;2136;-70
2024/04/16 09:39:19;;;;;;;;;;;18.80;69.30;;;;;;5388022;26;1910;-71
2024/04/16 09:41:46;;;;;;;;;;;18.80;69.30;;;;;;5390282;26;1868;-71
2024/04/16 09:44:12;;;;;;;;;;;18.80;69.30;;;;;;5363646;26;1886;-71
2024/04/16 09:46:37;;;;;;;;;;;18.80;69.40;;;;;;5395707;26;1801;-71
2024/04/16 09:49:03;;;;;;;;;;;18.80;69.40;;;;;;5395581;26;1863;-71
2024/04/16 09:51:28;;;;;;;;;;;18.80;69.40;;;;;;5399743;26;1801;-71
2024/04/16 09:53:54;;;;;;;;;;;18.80;69.40;;;;;;5398602;26;1688;-71
2024/04/16 09:56:19;;;;;;;;;;;18.80;69.40;;;;;;5395108;26;1826;-71
2024/04/16 09:58:49;;;;;;;;;;;18.70;69.30;;;;;;5407283;26;2105;-71
2024/04/16 10:01:15;;;;;;;;;;;18.80;69.40;;;;;;5402431;26;1879;-71
2024/04/16 10:03:40;;;;;;;;;;;18.80;69.40;;;;;;5395225;26;2477;-70
2024/04/16 10:06:06;;;;;;;;;;;18.70;69.40;;;;;;5402410;26;2534;-71
2024/04/16 10:08:31;;;;;;;;;;;18.80;69.50;;;;;;5394139;26;2093;-71
2024/04/16 10:10:57;;;;;;;;;;;18.70;69.40;;;;;;5401283;26;1963;-71
2024/04/16 10:13:24;;;;;;;;;;;18.80;69.50;;;;;;5372976;26;2831;-70
2024/04/16 10:15:50;;;;;;;;;;;18.70;69.40;;;;;;5393662;26;2416;-71
2024/04/16 10:18:15;;;;;;;;;;;18.70;69.40;;;;;;5396429;26;2084;-71
2024/04/16 10:20:48;;;;;;;;;;;18.80;69.50;;;;;;5406091;26;2641;-71
2024/04/16 10:23:14;;;;;;;;;;;18.70;69.50;;;;;;5396170;26;1414;-70
2024/04/16 10:25:40;;;;;;;;;;;18.70;69.50;;;;;;5391962;26;2103;-71
2024/04/16 10:28:06;;;;;;;;;;;18.70;69.50;;;;;;5399184;26;1879;-70
2024/04/16 10:30:34;;;;;;;;;;;18.70;69.50;;;;;;5395776;26;1722;-70
2024/04/16 10:32:59;;;;;;;;;;;18.70;69.50;;;;;;5398801;26;2037;-71
2024/04/16 10:35:28;;;;;;;;;;;18.70;69.50;;;;;;5389504;26;1753;-72
2024/04/16 10:37:55;;;;;;;;;;;18.70;69.50;;;;;;5392926;26;1802;-71
2024/04/16 10:40:27;;;;;;;;;;;18.70;69.60;;;;;;5402370;26;1963;-72
2024/04/16 10:42:53;;;;;;;;;;;18.70;69.60;;;;;;5406325;26;1826;-71
2024/04/16 10:45:19;;;;;;;;;;;18.70;69.60;;;;;;5403474;26;2045;-72
2024/04/16 10:47:45;;;;;;;;;;;18.70;69.60;;;;;;5394914;26;1992;-72
2024/04/16 10:50:10;;;;;;;;;;;18.70;69.60;;;;;;5402196;26;2058;-72
2024/04/16 10:52:36;;;;;;;;;;;18.70;69.60;;;;;;5408842;26;1915;-72
2024/04/16 10:55:02;;;;;;;;;;;18.70;69.60;;;;;;5398437;26;1964;-72
2024/04/16 10:57:28;;;;;;;;;;;18.70;69.70;;;;;;5398121;26;1980;-71
2024/04/16 10:59:53;;;;;;;;;;;18.70;69.70;;;;;;5403527;26;1845;-72
2024/04/16 11:02:19;;;;;;;;;;;18.70;69.70;;;;;;5399814;26;2060;-72
2024/04/16 11:04:44;;;;;;;;;;;18.60;69.60;;;;;;5393941;26;1602;-72
2024/04/16 11:07:09;;;;;;;;;;;18.70;69.70;;;;;;5404416;26;1639;-72
2024/04/16 11:09:35;;;;;;;;;;;18.60;69.60;;;;;;5396189;26;1894;-72
2024/04/16 11:12:00;;;;;;;;;;;18.60;69.60;;;;;;5387653;26;1920;-72
2024/04/16 11:14:26;;;;;;;;;;;18.60;69.70;;;;;;5408082;26;1926;-72
2024/04/16 11:16:51;;;;;;;;;;;18.60;69.70;;;;;;5401554;26;1997;-72
2024/04/16 11:19:17;;;;;;;;;;;18.60;69.70;;;;;;5394999;26;1881;-72
2024/04/16 11:21:43;;;;;;;;;;;18.70;69.80;;;;;;5394881;26;1846;-71
2024/04/16 11:24:09;;;;;;;;;;;18.70;69.80;;;;;;5396137;26;1798;-72
2024/04/16 11:26:36;;;;;;;;;;;18.70;69.80;;;;;;5376704;26;2013;-71
2024/04/16 11:29:02;;;;;;;;;;;18.60;69.80;;;;;;5401403;26;1697;-71
2024/04/16 11:31:27;;;;;;;;;;;18.60;69.80;;;;;;5394874;26;1938;-71
2024/04/16 11:33:52;;;;;;;;;;;18.60;69.70;;;;;;5391701;26;1789;-71
2024/04/16 11:36:18;;;;;;;;;;;18.70;69.80;;;;;;5398123;26;1962;-70
2024/04/16 11:38:44;;;;;;;;;;;18.60;69.80;;;;;;5391662;26;1463;-70
2024/04/16 11:41:09;;;;;;;;;;;18.70;69.90;;;;;;5395312;26;1856;-70
2024/04/16 11:43:35;;;;;;;;;;;18.60;69.80;;;;;;5400271;26;1521;-71
2024/04/16 11:46:02;;;;;;;;;;;18.70;69.90;;;;;;5393875;26;1484;-71
2024/04/16 11:48:27;;;;;;;;;;;18.70;69.90;;;;;;5402831;26;1754;-71
2024/04/16 11:50:53;;;;;;;;;;;18.60;69.80;;;;;;5406292;26;1522;-71
2024/04/16 11:53:18;;;;;;;;;;;18.60;70.60;;;;;;5393606;26;1597;-71
2024/04/16 11:55:44;;;;;;;;;;;18.60;69.80;;;;;;5395264;26;1844;-71
2024/04/16 11:58:09;;;;;;;;;;;18.60;69.80;;;;;;5396756;26;1556;-71
2024/04/16 12:00:35;;;;;;;;;;;18.60;69.90;;;;;;5398100;26;1196;-71
2024/04/16 12:03:00;;;;;;;;;;;18.60;69.90;;;;;;5403156;26;1822;-71
2024/04/16 12:05:26;;;;;;;;;;;18.60;69.90;;;;;;5393117;26;1651;-72
2024/04/16 12:07:51;;;;;;;;;;;18.60;69.90;;;;;;5397370;26;1904;-71
2024/04/16 12:10:17;;;;;;;;;;;18.60;70.20;;;;;;5399287;26;1808;-71
2024/04/16 12:12:42;;;;;;;;;;;18.60;69.90;;;;;;5388278;26;1955;-72
2024/04/16 12:15:08;;;;;;;;;;;18.60;69.90;;;;;;5387677;26;1871;-72
2024/04/16 12:17:33;;;;;;;;;;;18.60;70.00;;;;;;5407171;26;1963;-72
2024/04/16 12:19:59;;;;;;;;;;;18.60;69.90;;;;;;5372853;26;1432;-71
2024/04/16 12:22:24;;;;;;;;;;;18.60;69.90;;;;;;5395882;26;1857;-71
2024/04/16 12:24:50;;;;;;;;;;;18.60;69.90;;;;;;5398500;26;1534;-72
2024/04/16 12:27:15;;;;;;;;;;;18.60;70.00;;;;;;5394375;26;1497;-71
2024/04/16 12:29:40;;;;;;;;;;;18.60;70.00;;;;;;5390218;26;1563;-71
2024/04/16 12:32:06;;;;;;;;;;;18.60;70.00;;;;;;5393974;26;1780;-71
2024/04/16 12:34:31;;;;;;;;;;;18.60;70.00;;;;;;5390961;26;1533;-71
2024/04/16 12:36:57;;;;;;;;;;;18.60;70.00;;;;;;5390684;26;2494;-71
2024/04/16 12:39:22;;;;;;;;;;;18.60;70.00;;;;;;5392732;26;2027;-71
2024/04/16 12:41:48;;;;;;;;;;;18.60;70.80;;;;;;5363896;26;2474;-70
2024/04/16 12:44:14;;;;;;;;;;;18.60;70.00;;;;;;5395222;26;2585;-69
2024/04/16 12:46:39;;;;;;;;;;;18.60;70.00;;;;;;5391976;26;1809;-71
2024/04/16 12:49:05;;;;;;;;;;;18.60;70.00;;;;;;5399000;26;1882;-70
2024/04/16 12:51:31;;;;;;;;;;;18.60;70.10;;;;;;5394679;26;1525;-74
2024/04/16 12:53:56;;;;;;;;;;;18.60;70.00;;;;;;5397155;26;1916;-71
2024/04/16 12:56:22;;;;;;;;;;;18.60;70.00;;;;;;5393059;26;1914;-70
2024/04/16 12:58:47;;;;;;;;;;;18.60;70.10;;;;;;5395293;26;1933;-71
2024/04/16 13:01:13;;;;;;;;;;;18.50;70.00;;;;;;5391080;26;1874;-71
2024/04/16 13:03:38;;;;;;;;;;;18.60;70.10;;;;;;5397474;26;1755;-71
2024/04/16 13:06:04;;;;;;;;;;;18.60;70.10;;;;;;5393260;26;1298;-70
2024/04/16 13:08:29;;;;;;;;;;;18.60;70.10;;;;;;5394401;26;1745;-70
2024/04/16 13:10:55;;;;;;;;;;;18.60;70.10;;;;;;5388699;26;1452;-69
2024/04/16 13:13:20;;;;;;;;;;;18.50;70.10;;;;;;5386815;26;2051;-69
2024/04/16 13:15:46;;;;;;;;;;;18.60;70.10;;;;;;5390930;26;2388;-71
2024/04/16 13:18:12;;;;;;;;;;;18.50;70.10;;;;;;5386269;26;1904;-71
2024/04/16 13:20:38;;;;;;;;;;;18.60;70.10;;;;;;5396602;26;1650;-71
2024/04/16 13:23:03;;;;;;;;;;;18.60;70.10;;;;;;5393370;26;1825;-71
2024/04/16 13:25:29;;;;;;;;;;;18.50;70.10;;;;;;5390977;26;1686;-71
2024/04/16 13:27:54;;;;;;;;;;;18.50;70.10;;;;;;5406997;26;1764;-71
2024/04/16 13:30:20;;;;;;;;;;;18.50;70.10;;;;;;5402803;26;1882;-71
2024/04/16 13:32:45;;;;;;;;;;;18.50;70.10;;;;;;5406056;26;1945;-70
2024/04/16 13:35:11;;;;;;;;;;;18.50;70.10;;;;;;5401903;26;1958;-70
2024/04/16 13:37:36;;;;;;;;;;;18.50;70.10;;;;;;5400830;26;1340;-68
2024/04/16 13:40:02;;;;;;;;;;;18.50;70.10;;;;;;5397729;26;1917;-69
2024/04/16 13:42:27;;;;;;;;;;;18.50;70.10;;;;;;5408047;26;1874;-69
2024/04/16 13:44:53;;;;;;;;;;;18.50;70.20;;;;;;5404172;26;1791;-70
2024/04/16 13:47:18;;;;;;;;;;;18.50;70.20;;;;;;5405498;26;1921;-72
2024/04/16 13:49:44;;;;;;;;;;;18.50;70.20;;;;;;5401184;26;2031;-72
2024/04/16 13:52:09;;;;;;;;;;;18.50;70.20;;;;;;5399414;26;1861;-72
2024/04/16 13:54:35;;;;;;;;;;;18.50;70.20;;;;;;5398510;26;2055;-71
2024/04/16 13:57:00;;;;;;;;;;;18.50;70.20;;;;;;5402827;26;1770;-72
2024/04/16 13:59:26;;;;;;;;;;;18.50;70.20;;;;;;5405445;26;1870;-70
2024/04/16 14:01:51;;;;;;;;;;;18.50;70.20;;;;;;5401416;26;1885;-71
2024/04/16 14:04:17;;;;;;;;;;;18.50;70.20;;;;;;5415558;26;1908;-73
2024/04/16 14:06:42;;;;;;;;;;;18.50;70.20;;;;;;5400056;26;2385;-71
2024/04/16 14:09:08;;;;;;;;;;;18.50;70.20;;;;;;5398236;26;1467;-72
2024/04/16 14:11:33;;;;;;;;;;;18.50;70.20;;;;;;5403360;26;2004;-72
2024/04/16 14:13:59;;;;;;;;;;;18.50;70.20;;;;;;5398991;26;1854;-72
2024/04/16 14:16:24;;;;;;;;;;;18.50;70.20;;;;;;5401210;26;1996;-71
2024/04/16 14:18:50;;;;;;;;;;;18.50;70.30;;;;;;5395318;26;1689;-71
2024/04/16 14:21:16;;;;;;;;;;;18.50;70.20;;;;;;5393920;26;1876;-72